Terminal Aerodrome Forecast
Issued by NWS

Home | Current Version | Previous Version | Text Only | Print | Product List | Glossary On
Versions: 1 2 3 4 5 6 7 8 9 10 11 12 13 14 15 16 17 18 19 20 21 22 23
000
FTUS43 KLSX 202343
TAFCPS
TAF
KCPS 202343Z 2100/2124 15012G20KT P6SM BKN120
     FM210300 17009KT P6SM VCSH SCT040 OVC080
     FM210500 20006KT 6SM -SHRA OVC040
     FM210900 VRB04KT P6SM -SHRA OVC015
     FM211200 VRB04KT P6SM OVC015
     FM211500 VRB04KT P6SM BKN025
     FM211800 35005KT P6SM SCT030 BKN060=

USA.gov is the U.S. government's official web portal to all federal, state and local government web resources and services.